Terminal Aerodrome Forecast
Issued by NWS

Home | Current Version | Previous Version | Text Only | Print | Product List | Glossary On
Versions: 1 2 3 4 5 6 7 8 9 10 11 12 13 14 15 16 17 18
000
FTUS46 KSEW 281100
TAFOLM
TAF
KOLM 281123Z 2812/2912 18004KT P6SM OVC007
     FM281800 22008KT P6SM BKN022
     FM282000 20008KT P6SM BKN030=

USA.gov is the U.S. government's official web portal to all federal, state and local government web resources and services.